»·PEaware :: N55NT KSNA-KELP

N55NT :: KSNA-KELP

FLIGHT INFORMATION

Flight Status: Arrived
Operator: Privately registered:
United States
More flights under this callsign
Pilot: Craig H. (6968)
Aircraft: SOCATA TBM-900
(TBM9)
More flights by this aircraft type
Origin: KSNA John Wayne-Orange Co
United States
Destination: KELP El Paso Intl
United States
More flights between these airports :: More routes between these airports
Route: PIGGN2 CNERY BLH J169 TFD J50 ELP
File this flight plan on PilotEdge
Remarks:
Altitude:
(Current/Filed)
29,000ft
Speed:
(Current/Filed)
350kts
Departed: 07-Jul-20 03:19 PM
Arrived: 07-Jul-20 05:21 PM
Distance/Time
Traveled:
591nm/2:02
Distance/Time
To Go:
Arrived

Flight Plot

Page will automatically refresh every two minutes.

Flight plan parsing failed; only flown route is shown


Map Options




Map Legend


Flown Route
Filed Route
Departure Airport
Arrival Airport
Navaid (VOR, NDB)
Fix

Horizontal Profiles

Position Reports

Time Latitude Longitude Heading Altitude Ground
Speed
07-Jul-20 14:57 33.666049 -117.873034 41 59ft 0kts
07-Jul-20 14:58 33.666049 -117.873034 41 59ft 0kts
07-Jul-20 14:59 33.666049 -117.873034 41 59ft 0kts
07-Jul-20 15:00 33.666049 -117.873034 41 59ft 0kts
07-Jul-20 15:01 33.666049 -117.873034 41 59ft 0kts
07-Jul-20 15:02 33.666049 -117.873034 41 59ft 0kts
07-Jul-20 15:03 33.666049 -117.873034 41 59ft 0kts
07-Jul-20 15:04 33.666049 -117.873034 41 59ft 0kts
07-Jul-20 15:05 33.666049 -117.873034 41 59ft 0kts
07-Jul-20 15:06 33.666049 -117.873034 41 59ft 0kts
07-Jul-20 15:07 33.666049 -117.873034 41 59ft 0kts
07-Jul-20 15:08 33.666050 -117.873034 41 59ft 0kts
07-Jul-20 15:09 33.666050 -117.873034 41 59ft 0kts
07-Jul-20 15:10 33.666235 -117.873117 303 59ft 0kts
07-Jul-20 15:11 33.666437 -117.873346 352 59ft 5kts
07-Jul-20 15:12 33.669117 -117.870924 41 59ft 16kts
07-Jul-20 15:13 33.672686 -117.867764 37 59ft 15kts
07-Jul-20 15:14 33.675530 -117.865610 26 59ft 15kts
07-Jul-20 15:15 33.679015 -117.863402 28 59ft 15kts
07-Jul-20 15:16 33.680672 -117.863169 295 59ft 0kts
07-Jul-20 15:17 33.681122 -117.865386 206 59ft 14kts
07-Jul-20 15:18 33.659083 -117.879072 199 1449ft 114kts
07-Jul-20 15:19 33.625551 -117.889289 189 3472ft 139kts
07-Jul-20 15:20 33.586299 -117.896626 189 5558ft 148kts
07-Jul-20 15:21 33.547128 -117.883950 155 7768ft 156kts
07-Jul-20 15:22 33.508610 -117.858793 135 9936ft 165kts
07-Jul-20 15:23 33.487700 -117.807856 117 12036ft 175kts
07-Jul-20 15:24 33.476853 -117.751234 87 14077ft 188kts
07-Jul-20 15:25 33.485259 -117.688805 60 16099ft 199kts
07-Jul-20 15:26 33.513410 -117.630408 60 18040ft 207kts
07-Jul-20 15:27 33.542636 -117.569001 60 19940ft 216kts
07-Jul-20 15:28 33.573046 -117.504997 60 21679ft 226kts
07-Jul-20 15:29 33.568296 -117.435255 115 23309ft 225kts
07-Jul-20 15:30 33.550112 -117.362019 91 24959ft 241kts
07-Jul-20 15:31 33.552184 -117.280203 90 26694ft 250kts
07-Jul-20 15:32 33.554484 -117.195529 90 28279ft 258kts
07-Jul-20 15:33 33.556833 -117.106759 89 28934ft 285kts
07-Jul-20 15:34 33.559429 -117.005928 89 28923ft 316kts
07-Jul-20 15:35 33.562136 -116.897572 88 28918ft 333kts
07-Jul-20 15:36 33.564862 -116.784546 88 28872ft 343kts
07-Jul-20 15:37 33.567533 -116.669077 88 28806ft 347kts
07-Jul-20 15:38 33.570104 -116.553041 88 28765ft 348kts
07-Jul-20 15:39 33.572564 -116.437121 88 28739ft 348kts
07-Jul-20 15:40 33.574933 -116.320717 89 28719ft 348kts
07-Jul-20 15:41 33.577171 -116.204794 89 28721ft 347kts
07-Jul-20 15:42 33.579303 -116.089138 89 28722ft 346kts
07-Jul-20 15:43 33.581328 -115.973519 89 28722ft 346kts
07-Jul-20 15:44 33.583245 -115.857612 89 28724ft 347kts
07-Jul-20 15:45 33.585054 -115.741847 89 28725ft 347kts
07-Jul-20 15:46 33.586759 -115.626162 89 28726ft 347kts
07-Jul-20 15:47 33.588352 -115.510073 89 28727ft 347kts
07-Jul-20 15:48 33.589844 -115.394183 89 28730ft 347kts
07-Jul-20 15:49 33.591228 -115.277819 90 28735ft 347kts
07-Jul-20 15:50 33.592487 -115.162480 90 28747ft 346kts
07-Jul-20 15:51 33.593644 -115.047151 89 28749ft 345kts
07-Jul-20 15:52 33.594706 -114.931418 89 28750ft 344kts
07-Jul-20 15:53 33.595652 -114.816384 89 28751ft 344kts
07-Jul-20 15:54 33.590829 -114.702116 96 28752ft 344kts
07-Jul-20 15:55 33.580627 -114.587176 96 28253ft 356kts
07-Jul-20 15:56 33.569750 -114.466038 97 26825ft 371kts
07-Jul-20 15:57 33.559199 -114.350142 97 27528ft 328kts
07-Jul-20 15:58 33.549556 -114.245212 97 28435ft 308kts
07-Jul-20 15:59 33.540049 -114.142596 97 28756ft 317kts
07-Jul-20 16:00 33.530020 -114.035279 97 28754ft 329kts
07-Jul-20 16:01 33.519595 -113.924838 97 28752ft 335kts
07-Jul-20 16:02 33.508992 -113.813617 97 28752ft 337kts
07-Jul-20 16:03 33.498208 -113.701538 97 28761ft 338kts
07-Jul-20 16:04 33.487319 -113.589503 97 28787ft 338kts
07-Jul-20 16:05 33.476336 -113.477539 97 28808ft 339kts
07-Jul-20 16:06 33.465214 -113.365327 98 28807ft 339kts
07-Jul-20 16:07 33.429404 -113.261941 118 28802ft 335kts
07-Jul-20 16:08 33.389742 -113.161419 118 28802ft 335kts
07-Jul-20 16:09 33.349814 -113.060472 118 28803ft 335kts
07-Jul-20 16:10 33.309990 -112.960148 117 28804ft 335kts
07-Jul-20 16:11 33.269939 -112.859484 116 28804ft 335kts
07-Jul-20 16:12 33.229782 -112.758801 116 28798ft 335kts
07-Jul-20 16:13 33.189556 -112.658275 116 28792ft 335kts
07-Jul-20 16:14 33.149189 -112.557699 116 28786ft 336kts
07-Jul-20 16:15 33.108801 -112.457408 116 28791ft 335kts
07-Jul-20 16:16 33.072446 -112.355444 100 28800ft 333kts
07-Jul-20 16:17 33.052661 -112.247477 101 28801ft 332kts
07-Jul-20 16:18 33.032697 -112.140447 101 28820ft 329kts
07-Jul-20 16:19 33.012821 -112.034449 100 28823ft 328kts
07-Jul-20 16:21 32.992845 -111.928429 100 28827ft 327kts
07-Jul-20 16:22 32.972846 -111.822816 100 28830ft 325kts
07-Jul-20 16:23 32.952913 -111.718056 100 28833ft 323kts
07-Jul-20 16:24 32.932995 -111.613887 100 28834ft 323kts
07-Jul-20 16:25 32.912947 -111.509543 100 28841ft 322kts
07-Jul-20 16:26 32.892862 -111.405512 100 28855ft 322kts
07-Jul-20 16:27 32.872699 -111.301556 101 28878ft 321kts
07-Jul-20 16:28 32.852550 -111.198171 101 28899ft 320kts
07-Jul-20 16:29 32.832334 -111.095003 100 28911ft 321kts
07-Jul-20 16:30 32.812057 -110.991965 99 28912ft 318kts
07-Jul-20 16:31 32.792070 -110.890704 99 28911ft 311kts
07-Jul-20 16:32 32.772321 -110.791186 99 28908ft 306kts
07-Jul-20 16:33 32.752813 -110.693333 99 28909ft 303kts
07-Jul-20 16:34 32.733191 -110.595323 99 28910ft 305kts
07-Jul-20 16:35 32.713476 -110.497283 99 28910ft 306kts
07-Jul-20 16:36 32.693588 -110.398811 99 28910ft 306kts
07-Jul-20 16:36 32.676901 -110.316506 99 28911ft 306kts
07-Jul-20 16:38 32.653553 -110.201851 99 28911ft 307kts
07-Jul-20 16:39 32.633370 -110.103191 99 28911ft 307kts
07-Jul-20 16:39 32.616523 -110.021164 99 28911ft 307kts
07-Jul-20 16:40 32.596188 -109.922535 99 28911ft 307kts
07-Jul-20 16:41 32.575774 -109.823876 101 28912ft 309kts
07-Jul-20 16:42 32.555065 -109.724319 101 28912ft 310kts
07-Jul-20 16:43 32.533048 -109.625321 101 28914ft 310kts
07-Jul-20 16:44 32.512484 -109.526071 101 28912ft 311kts
07-Jul-20 16:45 32.492036 -109.426340 101 28911ft 311kts
07-Jul-20 16:46 32.471559 -109.326872 101 28915ft 311kts
07-Jul-20 16:47 32.450977 -109.227315 101 28938ft 310kts
07-Jul-20 16:48 32.430363 -109.128028 101 28999ft 310kts
07-Jul-20 16:49 32.409579 -109.028303 101 29064ft 313kts
07-Jul-20 16:50 32.388498 -108.927634 102 29102ft 317kts
07-Jul-20 16:51 32.367143 -108.826112 102 29102ft 319kts
07-Jul-20 16:52 32.345571 -108.723957 102 29102ft 320kts
07-Jul-20 16:53 32.323829 -108.621449 102 29102ft 321kts
07-Jul-20 16:54 32.302037 -108.519147 102 29102ft 321kts
07-Jul-20 16:55 32.280147 -108.416810 102 29102ft 321kts
07-Jul-20 16:56 32.258142 -108.314385 102 29101ft 321kts
07-Jul-20 16:57 32.236044 -108.211964 102 29103ft 321kts
07-Jul-20 16:58 32.213929 -108.109877 102 29116ft 321kts
07-Jul-20 16:59 32.191888 -108.008571 102 29122ft 312kts
07-Jul-20 17:00 32.170244 -107.909397 103 27779ft 321kts
07-Jul-20 17:01 32.149338 -107.814147 103 26939ft 276kts
07-Jul-20 17:02 32.129681 -107.724801 103 25994ft 306kts
07-Jul-20 17:03 32.107136 -107.622717 103 23689ft 330kts
07-Jul-20 17:04 32.083806 -107.517628 104 21449ft 327kts
07-Jul-20 17:05 32.061301 -107.416684 104 20134ft 314kts
07-Jul-20 17:06 32.038924 -107.316672 105 18668ft 316kts
07-Jul-20 17:07 32.016414 -107.216472 105 17169ft 315kts
07-Jul-20 17:08 31.993955 -107.116891 105 15699ft 313kts
07-Jul-20 17:09 31.971590 -107.018118 105 14226ft 310kts
07-Jul-20 17:10 31.949428 -106.920626 105 12749ft 307kts
07-Jul-20 17:11 31.926214 -106.829214 117 11934ft 254kts
07-Jul-20 17:12 31.892696 -106.757738 119 10819ft 246kts
07-Jul-20 17:13 31.859546 -106.687846 119 9404ft 244kts
07-Jul-20 17:14 31.828248 -106.620794 116 8099ft 239kts
07-Jul-20 17:15 31.796805 -106.548234 122 6956ft 228kts
07-Jul-20 17:16 31.764585 -106.492931 130 6234ft 182kts
07-Jul-20 17:17 31.783559 -106.451457 18 5063ft 174kts
07-Jul-20 17:18 31.801813 -106.421284 79 4351ft 96kts
07-Jul-20 17:19 31.802180 -106.390927 92 3982ft 90kts
07-Jul-20 17:20 31.801440 -106.374885 93 3941ft 23kts
07-Jul-20 17:21 31.799950 -106.370558 184 3949ft 6kts
07-Jul-20 17:22 31.798311 -106.374164 234 3945ft 14kts
07-Jul-20 17:23 31.798427 -106.374917 3 3944ft 0kts

Navigation Log

Ident Type
Flight plan parsing failed, navigation log unavailable